Atlas — SV6729 — position and weather

sailwx.info

Track history (hours):
 
Tides and Currents Weather Stations Pressure Air Temp Water Temp Dewpoint Dewpoint Depression Visibility Wind Speed Wind Dir Waves Ship Positions

Atlas

Last reported at 2014-Dec-18 12:15 UTC. Time now 2014-Dec-19 01:29 UTC.
Position N 37°57' E 023°37'.

Length 29 m; draft 5 m.

Type: Tug. MMSI: 239611000.

Date/timePositionNaut miles runAvg speedWind from/ knotsBaromVisibWave heightAir tempDewpointWater temp
2014-Dec-18 12:15N 37°57' E 023°37'1 0.8
2014-Dec-18 11:31N 37°57' E 023°36'1 0.6
2014-Dec-18 10:32N 37°57' E 023°37'0 0.0
2014-Dec-18 09:30N 37°57' E 023°37'2 2.4
2014-Dec-18 08:32N 37°57' E 023°34'0 0.0
2014-Dec-18 07:31N 37°57' E 023°34'6 5.0
2014-Dec-18 06:24N 38°02' E 023°32'3 4.0
2014-Dec-18 05:33N 37°59' E 023°33'3 3.3
2014-Dec-18 04:31N 37°57' E 023°37'3 0.4
2014-Dec-17 19:33N 37°59' E 023°33'3 3.0
2014-Dec-17 18:31N 38°01' E 023°35'0 0.0
2014-Dec-17 17:31N 38°01' E 023°35'0 0.0
2014-Dec-17 16:31N 38°01' E 023°35'2 2.5
2014-Dec-17 15:33N 37°60' E 023°33'2 2.3
2014-Dec-17 14:33N 37°58' E 023°33'2 2.4
2014-Dec-17 13:32N 37°57' E 023°37'0 0.0
2014-Dec-17 09:31N 37°57' E 023°37'0 0.0
2014-Dec-17 08:23N 37°57' E 023°37'0 0.0
2014-Dec-17 06:26N 37°57' E 023°37'0 0.0
2014-Dec-17 05:30N 37°57' E 023°37'0 0.0
2014-Dec-17 04:12N 37°57' E 023°37'0 0.0
2014-Dec-16 12:14N 37°57' E 023°36'3 4.0
2014-Dec-16 11:28N 37°60' E 023°34'2 2.1
2014-Dec-16 10:27N 38°01' E 023°36'4 4.7
2014-Dec-16 09:34N 37°58' E 023°33'0 0.3
2014-Dec-16 08:31N 37°58' E 023°33'0 0.0
2014-Dec-16 07:26N 37°58' E 023°33'2 2.0
2014-Dec-16 06:23N 37°57' E 023°36'0 0.6
2014-Dec-16 05:33N 37°57' E 023°36'1 0.9
2014-Dec-16 04:29N 37°56' E 023°37'1 0.1
2014-Dec-15 15:32N 37°57' E 023°37'4 3.9
2014-Dec-15 14:31N 38°01' E 023°36'1 1.4
2014-Dec-15 13:32N 38°01' E 023°34'3 3.2
2014-Dec-15 12:33N 37°58' E 023°33'3 2.7
2014-Dec-15 11:31N 37°57' E 023°37'0 0.0
2014-Dec-15 10:18N 37°57' E 023°37'0 0.0
2014-Dec-15 09:32N 37°57' E 023°37'4 3.5
2014-Dec-15 08:29N 37°59' E 023°32'0 0.3
2014-Dec-15 07:33N 37°59' E 023°33'0 0.3
2014-Dec-15 06:31N 37°58' E 023°33'3 3.2
2014-Dec-15 05:33N 37°57' E 023°36'1 0.7
2014-Dec-15 04:26N 37°57' E 023°37'  
2014-Dec-12 22:30N 37°57' E 023°35'0 0.5
2014-Dec-12 21:33N 37°57' E 023°36'0 0.1
2014-Dec-12 20:31N 37°57' E 023°36'2 1.9
2014-Dec-12 19:33N 37°57' E 023°34'2 1.5
2014-Dec-12 18:31N 37°58' E 023°32'0 0.2
2014-Dec-12 17:31N 37°58' E 023°32'3 3.6
2014-Dec-12 16:33N 37°57' E 023°36'0 0.2
2014-Dec-12 15:32N 37°57' E 023°37'0 0.0
2014-Dec-12 14:33N 37°57' E 023°37'4 3.5
2014-Dec-12 13:30N 37°59' E 023°32'0 0.4
2014-Dec-12 12:34N 37°58' E 023°33'0 0.0
2014-Dec-12 11:33N 37°58' E 023°33'0 0.3
2014-Dec-12 10:30N 37°59' E 023°32'1 0.6
2014-Dec-12 09:33N 37°59' E 023°33'1 1.2
2014-Dec-12 08:34N 37°58' E 023°33'3 0.2
2014-Dec-11 19:33N 37°57' E 023°37'0 0.2
2014-Dec-11 18:33N 37°57' E 023°36'0 0.2
2014-Dec-11 17:32N 37°57' E 023°37'0 0.3
2014-Dec-11 16:32N 37°58' E 023°36'0 0.3
2014-Dec-11 15:31N 37°57' E 023°37'1 0.8
2014-Dec-11 14:30N 37°57' E 023°36'1 0.8
2014-Dec-11 13:31N 37°57' E 023°37'0 0.5
2014-Dec-11 12:33N 37°57' E 023°36'0 0.0
2014-Dec-11 00:34N 37°57' E 023°36'1 0.6
2014-Dec-10 23:32N 37°57' E 023°37'0 0.0
2014-Dec-10 22:33N 37°57' E 023°37'3 3.1
2014-Dec-10 21:33N 37°59' E 023°34'2 1.6
2014-Dec-10 20:34N 37°59' E 023°32'3 3.2
2014-Dec-10 19:33N 37°57' E 023°36'0 0.4
2014-Dec-10 18:33N 37°57' E 023°36'0 0.1
2014-Dec-10 17:32N 37°57' E 023°37'0 0.0
2014-Dec-10 16:32N 37°57' E 023°37'0 0.0
2014-Dec-10 15:31N 37°57' E 023°37'0 0.0
2014-Dec-10 14:33N 37°57' E 023°37'0 0.0
2014-Dec-10 13:33N 37°57' E 023°37'0 0.0
2014-Dec-10 12:33N 37°57' E 023°37'0 0.0
2014-Dec-10 11:26N 37°57' E 023°37'0 0.0
2014-Dec-10 10:33N 37°57' E 023°37'0 0.0
2014-Dec-10 09:31N 37°57' E 023°37'0 0.0
2014-Dec-10 08:33N 37°57' E 023°37'0 0.0
2014-Dec-10 07:31N 37°57' E 023°37'2 1.9
2014-Dec-10 06:34N 37°57' E 023°34'2 2.0
2014-Dec-10 05:30N 37°59' E 023°32'1 0.8
2014-Dec-10 04:33N 37°59' E 023°33'2 1.5
2014-Dec-10 03:33N 37°58' E 023°33'3 0.4
2014-Dec-09 20:33N 37°57' E 023°36'4 3.5
2014-Dec-09 19:32N 37°58' E 023°32'1 0.6
2014-Dec-09 18:29N 37°58' E 023°33'0 0.3
2014-Dec-09 17:33N 37°58' E 023°33'3 2.9
2014-Dec-09 16:29N 37°57' E 023°37'0 0.0
2014-Dec-09 15:32N 37°57' E 023°37'0 0.0
2014-Dec-09 14:25N 37°57' E 023°37'0 0.0
2014-Dec-09 13:29N 37°57' E 023°37'0 0.0
2014-Dec-09 12:28N 37°57' E 023°37'0 0.0
2014-Dec-08 19:33N 37°57' E 023°37'0 0.0
2014-Dec-08 18:29N 37°57' E 023°37'0 0.0
2014-Dec-08 17:33N 37°57' E 023°37'0 0.0
2014-Dec-08 16:33N 37°57' E 023°37'4 3.5
2014-Dec-08 15:30N 37°58' E 023°32'0 0.1
2014-Dec-08 14:32N 37°58' E 023°32'0 0.1
2014-Dec-08 13:33N 37°58' E 023°32'3 3.2
2014-Dec-08 12:34N 37°57' E 023°36'  
Track history (hours):
 
Tides and Currents Weather Stations Pressure Air Temp Water Temp Dewpoint Dewpoint Depression Visibility Wind Speed Wind Dir Waves Ship Positions

Atlas

Last reported at 2014-Dec-18 12:15 UTC. Time now 2014-Dec-19 01:29 UTC.
Position N 37°57' E 023°37'.

Length 29 m; draft 5 m.

Type: Tug. MMSI: 239611000.

Date/timePositionNaut miles runAvg speedWind from/ knotsBaromVisibWave heightAir tempDewpointWater temp
2014-Dec-18 12:15N 37°57' E 023°37'1 0.8
2014-Dec-18 11:31N 37°57' E 023°36'1 0.6
2014-Dec-18 10:32N 37°57' E 023°37'0 0.0
2014-Dec-18 09:30N 37°57' E 023°37'2 2.4
2014-Dec-18 08:32N 37°57' E 023°34'0 0.0
2014-Dec-18 07:31N 37°57' E 023°34'6 5.0
2014-Dec-18 06:24N 38°02' E 023°32'3 4.0
2014-Dec-18 05:33N 37°59' E 023°33'3 3.3
2014-Dec-18 04:31N 37°57' E 023°37'3 0.4
2014-Dec-17 19:33N 37°59' E 023°33'3 3.0
2014-Dec-17 18:31N 38°01' E 023°35'0 0.0
2014-Dec-17 17:31N 38°01' E 023°35'0 0.0
2014-Dec-17 16:31N 38°01' E 023°35'2 2.5
2014-Dec-17 15:33N 37°60' E 023°33'2 2.3
2014-Dec-17 14:33N 37°58' E 023°33'2 2.4
2014-Dec-17 13:32N 37°57' E 023°37'0 0.0
2014-Dec-17 09:31N 37°57' E 023°37'0 0.0
2014-Dec-17 08:23N 37°57' E 023°37'0 0.0
2014-Dec-17 06:26N 37°57' E 023°37'0 0.0
2014-Dec-17 05:30N 37°57' E 023°37'0 0.0
2014-Dec-17 04:12N 37°57' E 023°37'0 0.0
2014-Dec-16 12:14N 37°57' E 023°36'3 4.0
2014-Dec-16 11:28N 37°60' E 023°34'2 2.1
2014-Dec-16 10:27N 38°01' E 023°36'4 4.7
2014-Dec-16 09:34N 37°58' E 023°33'0 0.3
2014-Dec-16 08:31N 37°58' E 023°33'0 0.0
2014-Dec-16 07:26N 37°58' E 023°33'2 2.0
2014-Dec-16 06:23N 37°57' E 023°36'0 0.6
2014-Dec-16 05:33N 37°57' E 023°36'1 0.9
2014-Dec-16 04:29N 37°56' E 023°37'1 0.1
2014-Dec-15 15:32N 37°57' E 023°37'4 3.9
2014-Dec-15 14:31N 38°01' E 023°36'1 1.4
2014-Dec-15 13:32N 38°01' E 023°34'3 3.2
2014-Dec-15 12:33N 37°58' E 023°33'3 2.7
2014-Dec-15 11:31N 37°57' E 023°37'0 0.0
2014-Dec-15 10:18N 37°57' E 023°37'0 0.0
2014-Dec-15 09:32N 37°57' E 023°37'4 3.5
2014-Dec-15 08:29N 37°59' E 023°32'0 0.3
2014-Dec-15 07:33N 37°59' E 023°33'0 0.3
2014-Dec-15 06:31N 37°58' E 023°33'3 3.2
2014-Dec-15 05:33N 37°57' E 023°36'1 0.7
2014-Dec-15 04:26N 37°57' E 023°37'  
2014-Dec-12 22:30N 37°57' E 023°35'0 0.5
2014-Dec-12 21:33N 37°57' E 023°36'0 0.1
2014-Dec-12 20:31N 37°57' E 023°36'2 1.9
2014-Dec-12 19:33N 37°57' E 023°34'2 1.5
2014-Dec-12 18:31N 37°58' E 023°32'0 0.2
2014-Dec-12 17:31N 37°58' E 023°32'3 3.6
2014-Dec-12 16:33N 37°57' E 023°36'0 0.2
2014-Dec-12 15:32N 37°57' E 023°37'0 0.0
2014-Dec-12 14:33N 37°57' E 023°37'4 3.5
2014-Dec-12 13:30N 37°59' E 023°32'0 0.4
2014-Dec-12 12:34N 37°58' E 023°33'0 0.0
2014-Dec-12 11:33N 37°58' E 023°33'0 0.3
2014-Dec-12 10:30N 37°59' E 023°32'1 0.6
2014-Dec-12 09:33N 37°59' E 023°33'1 1.2
2014-Dec-12 08:34N 37°58' E 023°33'3 0.2
2014-Dec-11 19:33N 37°57' E 023°37'0 0.2
2014-Dec-11 18:33N 37°57' E 023°36'0 0.2
2014-Dec-11 17:32N 37°57' E 023°37'0 0.3
2014-Dec-11 16:32N 37°58' E 023°36'0 0.3
2014-Dec-11 15:31N 37°57' E 023°37'1 0.8
2014-Dec-11 14:30N 37°57' E 023°36'1 0.8
2014-Dec-11 13:31N 37°57' E 023°37'0 0.5
2014-Dec-11 12:33N 37°57' E 023°36'0 0.0
2014-Dec-11 00:34N 37°57' E 023°36'1 0.6
2014-Dec-10 23:32N 37°57' E 023°37'0 0.0
2014-Dec-10 22:33N 37°57' E 023°37'3 3.1
2014-Dec-10 21:33N 37°59' E 023°34'2 1.6
2014-Dec-10 20:34N 37°59' E 023°32'3 3.2
2014-Dec-10 19:33N 37°57' E 023°36'0 0.4
2014-Dec-10 18:33N 37°57' E 023°36'0 0.1
2014-Dec-10 17:32N 37°57' E 023°37'0 0.0
2014-Dec-10 16:32N 37°57' E 023°37'0 0.0
2014-Dec-10 15:31N 37°57' E 023°37'0 0.0
2014-Dec-10 14:33N 37°57' E 023°37'0 0.0
2014-Dec-10 13:33N 37°57' E 023°37'0 0.0
2014-Dec-10 12:33N 37°57' E 023°37'0 0.0
2014-Dec-10 11:26N 37°57' E 023°37'0 0.0
2014-Dec-10 10:33N 37°57' E 023°37'0 0.0
2014-Dec-10 09:31N 37°57' E 023°37'0 0.0
2014-Dec-10 08:33N 37°57' E 023°37'0 0.0
2014-Dec-10 07:31N 37°57' E 023°37'2 1.9
2014-Dec-10 06:34N 37°57' E 023°34'2 2.0
2014-Dec-10 05:30N 37°59' E 023°32'1 0.8
2014-Dec-10 04:33N 37°59' E 023°33'2 1.5
2014-Dec-10 03:33N 37°58' E 023°33'3 0.4
2014-Dec-09 20:33N 37°57' E 023°36'4 3.5
2014-Dec-09 19:32N 37°58' E 023°32'1 0.6
2014-Dec-09 18:29N 37°58' E 023°33'0 0.3
2014-Dec-09 17:33N 37°58' E 023°33'3 2.9
2014-Dec-09 16:29N 37°57' E 023°37'0 0.0
2014-Dec-09 15:32N 37°57' E 023°37'0 0.0
2014-Dec-09 14:25N 37°57' E 023°37'0 0.0
2014-Dec-09 13:29N 37°57' E 023°37'0 0.0
2014-Dec-09 12:28N 37°57' E 023°37'0 0.0
2014-Dec-08 19:33N 37°57' E 023°37'0 0.0
2014-Dec-08 18:29N 37°57' E 023°37'0 0.0
2014-Dec-08 17:33N 37°57' E 023°37'0 0.0
2014-Dec-08 16:33N 37°57' E 023°37'4 3.5
2014-Dec-08 15:30N 37°58' E 023°32'0 0.1
2014-Dec-08 14:32N 37°58' E 023°32'0 0.1
2014-Dec-08 13:33N 37°58' E 023°32'3 3.2
2014-Dec-08 12:34N 37°57' E 023°36'  

Dump ship's entire track history